sim
Sign-in with your pilot id or email,
or register
Callsign
Passwort

Schedule Details

Flight Number: OEO5553
Departure: Malaga Costa Del Sol Airport (LEMG) at 08:10
Arrival: Munich Airport (EDDM) at 11:00

Weather Information
Getting current METAR information for LEMG 190600Z 28005KT 9999 FEW020 18/16 Q1017 NOSIG
Getting current METAR information for EDDM 190620Z 05005KT CAVOK 08/05 Q1020 NOSIG

Schedule Frequency

Route Map